createdAt,value
2019-02-20T00:00:09.818Z,3.27
2019-02-20T00:02:14.143Z,3.40
2019-02-20T00:04:18.505Z,4.23
2019-02-20T00:06:22.838Z,5.43
2019-02-20T00:08:27.213Z,5.13
2019-02-20T00:10:31.523Z,5.90
2019-02-20T00:12:35.898Z,4.77
2019-02-20T00:14:40.211Z,4.57
2019-02-20T00:16:44.515Z,3.43
2019-02-20T00:18:48.859Z,4.73
2019-02-20T00:20:53.195Z,4.43
2019-02-20T00:22:57.576Z,4.50
2019-02-20T00:25:01.902Z,3.50
2019-02-20T00:27:06.266Z,4.13
2019-02-20T00:29:10.584Z,4.93
2019-02-20T00:31:14.920Z,4.57
2019-02-20T00:33:19.374Z,3.70
2019-02-20T00:35:23.689Z,3.63
2019-02-20T00:37:27.991Z,3.50
2019-02-20T00:39:32.366Z,4.10
2019-02-20T00:41:36.750Z,4.63
2019-02-20T00:43:41.202Z,3.83
2019-02-20T00:45:50.775Z,4.27
2019-02-20T00:48:07.230Z,3.67
2019-02-20T00:50:11.718Z,4.37
2019-02-20T00:52:24.137Z,4.70
2019-02-20T00:54:28.482Z,4.53
2019-02-20T00:56:32.865Z,4.57
2019-02-20T00:58:37.200Z,4.87
2019-02-20T01:00:41.686Z,4.83
2019-02-20T01:02:46.061Z,4.80
2019-02-20T01:04:50.391Z,4.93
2019-02-20T01:06:54.767Z,4.40
2019-02-20T01:08:59.164Z,4.50
2019-02-20T01:11:03.546Z,3.80
2019-02-20T01:13:07.875Z,5.10
2019-02-20T01:15:12.260Z,4.03
2019-02-20T01:17:16.685Z,4.40
2019-02-20T01:19:21.001Z,4.00
2019-02-20T01:21:25.361Z,3.60
2019-02-20T01:23:29.754Z,3.57
2019-02-20T01:25:34.134Z,3.67
2019-02-20T01:27:38.447Z,3.60
2019-02-20T01:29:42.819Z,3.30
2019-02-20T01:31:47.161Z,4.00
2019-02-20T01:33:51.581Z,3.27
2019-02-20T01:35:55.946Z,3.43
2019-02-20T01:38:00.370Z,4.50
2019-02-20T01:40:04.885Z,3.80
2019-02-20T01:42:09.206Z,3.67
2019-02-20T01:44:13.574Z,4.27
2019-02-20T01:46:17.877Z,4.23
2019-02-20T01:48:22.213Z,3.43
2019-02-20T01:50:26.575Z,3.60
2019-02-20T01:52:30.898Z,3.57
2019-02-20T01:54:35.263Z,4.23
2019-02-20T01:56:39.590Z,3.70
2019-02-20T01:58:43.917Z,4.67
2019-02-20T02:00:48.290Z,4.67
2019-02-20T02:02:52.610Z,5.10
2019-02-20T02:04:56.971Z,4.47
2019-02-20T02:07:01.326Z,3.77
2019-02-20T02:09:07.589Z,5.33
2019-02-20T02:11:11.965Z,4.80
2019-02-20T02:13:16.285Z,4.10
2019-02-20T02:15:20.884Z,3.63
2019-02-20T02:17:25.041Z,3.80
2019-02-20T02:19:29.500Z,4.17
2019-02-20T02:21:33.857Z,3.43
2019-02-20T02:23:38.168Z,3.60
2019-02-20T02:25:42.546Z,3.27
2019-02-20T02:27:46.854Z,3.97
2019-02-20T02:29:51.194Z,3.90
2019-02-20T02:31:55.536Z,4.30
2019-02-20T02:33:59.893Z,4.47
2019-02-20T02:36:04.272Z,4.13
2019-02-20T02:38:08.617Z,4.20
2019-02-20T02:40:12.974Z,4.00
2019-02-20T02:42:17.333Z,4.87
2019-02-20T02:44:21.695Z,5.20
2019-02-20T02:46:26.055Z,5.23
2019-02-20T02:48:30.421Z,4.90
2019-02-20T02:50:34.761Z,4.50
2019-02-20T02:52:39.113Z,4.60
2019-02-20T02:54:43.504Z,4.20
2019-02-20T02:56:47.842Z,4.80
2019-02-20T02:58:52.187Z,4.13
2019-02-20T03:00:56.509Z,4.27
2019-02-20T03:03:00.801Z,4.50
2019-02-20T03:05:05.331Z,4.60
2019-02-20T03:07:09.713Z,4.97
2019-02-20T03:09:14.072Z,4.53
2019-02-20T03:11:18.387Z,3.37
2019-02-20T03:13:22.838Z,4.40
2019-02-20T03:15:27.147Z,3.70
2019-02-20T03:17:31.438Z,3.57
2019-02-20T03:19:35.800Z,4.40
2019-02-20T03:21:40.156Z,4.60
2019-02-20T03:23:44.483Z,4.43
2019-02-20T03:25:48.849Z,4.40
2019-02-20T03:27:53.190Z,4.00
2019-02-20T03:29:57.544Z,3.40
2019-02-20T03:32:01.937Z,4.10
2019-02-20T03:34:08.815Z,5.33
2019-02-20T03:36:10.649Z,4.80
2019-02-20T03:38:14.988Z,5.80
2019-02-20T03:40:19.436Z,5.10
2019-02-20T03:42:23.783Z,4.90
2019-02-20T03:44:28.100Z,4.37
2019-02-20T03:46:33.609Z,5.80
2019-02-20T03:48:37.966Z,5.43
2019-02-20T03:50:42.305Z,5.27
2019-02-20T03:52:46.689Z,5.23
2019-02-20T03:54:51.071Z,3.93
2019-02-20T03:56:55.407Z,5.17
2019-02-20T03:58:59.794Z,4.80
2019-02-20T04:01:04.163Z,5.30
2019-02-20T04:03:08.516Z,4.83
2019-02-20T04:05:12.879Z,5.30
2019-02-20T04:07:17.330Z,5.73
2019-02-20T04:09:21.646Z,5.30
2019-02-20T04:11:25.974Z,4.50
2019-02-20T04:13:30.397Z,5.10
2019-02-20T04:15:34.731Z,5.40
2019-02-20T04:17:39.101Z,6.10
2019-02-20T04:19:43.466Z,6.03
2019-02-20T04:21:47.843Z,4.83
2019-02-20T04:24:01.576Z,4.80
2019-02-20T04:25:56.546Z,5.60
2019-02-20T04:28:00.942Z,5.57
2019-02-20T04:30:05.441Z,6.50
2019-02-20T04:32:09.771Z,5.90
2019-02-20T04:34:14.137Z,5.70
2019-02-20T04:36:18.509Z,6.30
2019-02-20T04:38:22.887Z,5.83
2019-02-20T04:40:27.219Z,6.83
2019-02-20T04:42:31.578Z,5.20
2019-02-20T04:44:35.994Z,4.50
2019-02-20T04:46:40.346Z,5.53
2019-02-20T04:48:44.707Z,4.73
2019-02-20T04:50:49.111Z,5.67
2019-02-20T04:52:53.427Z,5.93
2019-02-20T04:54:57.863Z,6.00
2019-02-20T04:57:02.183Z,5.63
2019-02-20T04:59:06.574Z,5.83
2019-02-20T05:01:10.895Z,5.40
2019-02-20T05:03:15.283Z,5.87
2019-02-20T05:05:19.675Z,6.10
2019-02-20T05:07:24.016Z,6.33
2019-02-20T05:09:28.373Z,5.77
2019-02-20T05:11:32.710Z,7.00
2019-02-20T05:13:37.083Z,6.60
2019-02-20T05:15:41.460Z,7.07
2019-02-20T05:17:45.911Z,6.13
2019-02-20T05:19:50.242Z,6.37
2019-02-20T05:21:54.630Z,5.30
2019-02-20T05:23:59.139Z,5.87
2019-02-20T05:26:03.465Z,5.37
2019-02-20T05:28:07.855Z,6.57
2019-02-20T05:30:12.307Z,5.47
2019-02-20T05:32:16.670Z,4.90
2019-02-20T05:34:21.053Z,4.10
2019-02-20T05:36:25.400Z,6.77
2019-02-20T05:38:29.786Z,5.70
2019-02-20T05:40:34.131Z,6.43
2019-02-20T05:42:38.522Z,5.87
2019-02-20T05:44:42.908Z,6.00
2019-02-20T05:46:47.270Z,6.27
2019-02-20T05:48:51.618Z,9.40
2019-02-20T05:50:55.938Z,8.30
2019-02-20T05:53:00.293Z,7.30
2019-02-20T05:55:04.879Z,7.17
2019-02-20T05:57:09.216Z,6.20
2019-02-20T05:59:13.561Z,7.33
2019-02-20T06:01:17.923Z,5.97
2019-02-20T06:03:22.314Z,7.00
2019-02-20T06:05:26.663Z,5.57
2019-02-20T06:07:31.013Z,6.57
2019-02-20T06:09:35.325Z,7.70
2019-02-20T06:11:39.682Z,7.20
2019-02-20T06:13:44.160Z,7.63
2019-02-20T06:15:48.513Z,7.47
2019-02-20T06:17:52.855Z,7.00
2019-02-20T06:19:57.190Z,7.00
2019-02-20T06:22:01.590Z,6.57
2019-02-20T06:24:05.947Z,6.17
2019-02-20T06:26:10.363Z,5.93
2019-02-20T06:28:14.685Z,6.73
2019-02-20T06:30:19.015Z,6.30
2019-02-20T06:32:24.160Z,5.97
2019-02-20T06:34:27.740Z,6.13
2019-02-20T06:36:32.103Z,6.13
2019-02-20T06:38:36.484Z,6.80
2019-02-20T06:40:40.858Z,6.63
2019-02-20T06:42:45.191Z,5.93
2019-02-20T06:44:49.510Z,6.43
2019-02-20T06:46:53.889Z,5.13
2019-02-20T06:48:58.218Z,5.10
2019-02-20T06:51:02.593Z,5.03
2019-02-20T06:53:06.896Z,5.50
2019-02-20T06:55:11.031Z,5.23
2019-02-20T06:57:15.442Z,5.03
2019-02-20T06:59:19.797Z,5.73
2019-02-20T07:01:24.131Z,4.47
2019-02-20T07:03:28.497Z,4.97
2019-02-20T07:05:39.830Z,5.30
2019-02-20T07:08:55.477Z,5.73
2019-02-20T07:12:11.142Z,6.20
2019-02-20T07:14:37.325Z,5.97
2019-02-20T07:17:23.096Z,6.57
2019-02-20T07:19:39.769Z,5.37
2019-02-20T07:21:58.521Z,5.30
2019-02-20T07:24:16.798Z,5.43
2019-02-20T07:26:41.106Z,6.50
2019-02-20T07:29:13.370Z,5.43
2019-02-20T07:31:18.054Z,5.97
2019-02-20T07:33:22.453Z,5.57
2019-02-20T07:35:26.874Z,5.50
2019-02-20T07:37:31.253Z,5.43
2019-02-20T07:39:35.623Z,5.00
2019-02-20T07:41:40.255Z,4.90
2019-02-20T07:43:44.594Z,5.30
2019-02-20T07:45:49.289Z,5.77
2019-02-20T07:47:53.344Z,6.57
2019-02-20T07:49:57.673Z,5.63
2019-02-20T07:52:02.069Z,5.80
2019-02-20T07:54:06.866Z,6.07
2019-02-20T07:56:11.242Z,5.33
2019-02-20T07:58:15.563Z,4.57
2019-02-20T08:00:19.984Z,5.57
2019-02-20T08:02:24.348Z,5.43
2019-02-20T08:04:28.710Z,5.20
2019-02-20T08:06:33.038Z,5.93
2019-02-20T08:08:37.466Z,4.13
2019-02-20T08:10:41.813Z,4.80
2019-02-20T08:12:46.143Z,5.60
2019-02-20T08:14:50.487Z,5.30
2019-02-20T08:16:54.846Z,3.77
2019-02-20T08:18:59.219Z,5.47
2019-02-20T08:21:03.591Z,6.07
2019-02-20T08:23:07.975Z,5.93
2019-02-20T08:25:12.333Z,4.60
2019-02-20T08:27:16.677Z,4.77
2019-02-20T08:29:21.047Z,6.27
2019-02-20T08:31:25.435Z,5.00
2019-02-20T08:33:29.778Z,4.80
2019-02-20T08:35:34.165Z,4.83
2019-02-20T08:37:38.511Z,5.13
2019-02-20T08:39:42.900Z,5.00
2019-02-20T08:41:47.266Z,4.87
2019-02-20T08:43:51.601Z,5.07
2019-02-20T08:46:02.559Z,4.90
2019-02-20T08:48:07.166Z,4.07
2019-02-20T08:50:11.996Z,5.70
2019-02-20T08:52:16.387Z,3.90
2019-02-20T08:54:20.720Z,4.57
2019-02-20T08:56:25.202Z,4.97
2019-02-20T08:58:29.562Z,4.50
2019-02-20T09:00:33.982Z,4.00
2019-02-20T09:02:38.347Z,5.70
2019-02-20T09:04:42.672Z,5.80
2019-02-20T09:06:47.128Z,3.40
2019-02-20T09:08:51.494Z,5.17
2019-02-20T09:10:55.832Z,4.97
2019-02-20T09:15:26.109Z,4.97
2019-02-20T09:17:30.488Z,5.87
2019-02-20T09:19:34.818Z,4.93
2019-02-20T09:21:39.194Z,5.00
2019-02-20T09:23:43.542Z,5.73
2019-02-20T09:25:47.985Z,5.57
2019-02-20T09:27:52.302Z,7.20
2019-02-20T09:29:56.662Z,5.27
2019-02-20T09:32:01.094Z,5.20
2019-02-20T09:34:05.550Z,4.20
2019-02-20T09:36:09.983Z,4.87
2019-02-20T09:38:14.305Z,5.63
2019-02-20T09:40:18.726Z,6.57
2019-02-20T09:42:23.105Z,6.13
2019-02-20T09:44:27.534Z,6.33
2019-02-20T09:46:31.905Z,6.27
2019-02-20T09:48:36.258Z,5.80
2019-02-20T09:50:40.660Z,5.57
2019-02-20T09:52:51.979Z,6.27
2019-02-20T09:54:49.402Z,5.57
2019-02-20T09:56:53.794Z,5.20
2019-02-20T09:58:58.137Z,5.37
2019-02-20T10:01:03.077Z,6.30
2019-02-20T10:03:06.917Z,5.93
2019-02-20T10:05:11.362Z,7.07
2019-02-20T10:07:15.767Z,5.17
2019-02-20T10:09:20.122Z,5.77
2019-02-20T10:11:24.517Z,6.20
2019-02-20T10:13:28.854Z,6.20
2019-02-20T10:15:33.231Z,5.57
2019-02-20T10:17:37.619Z,6.47
2019-02-20T10:19:41.967Z,6.57
2019-02-20T10:21:46.367Z,6.57
2019-02-20T10:23:50.753Z,7.03
2019-02-20T10:26:00.768Z,6.23
2019-02-20T10:27:59.599Z,6.63
2019-02-20T10:30:04.078Z,5.23
2019-02-20T10:32:08.465Z,6.27
2019-02-20T10:34:12.786Z,6.50
2019-02-20T10:36:17.174Z,5.13
2019-02-20T10:38:21.541Z,8.50
2019-02-20T10:40:25.892Z,6.00
2019-02-20T10:42:30.303Z,6.70
2019-02-20T10:44:34.694Z,6.50
2019-02-20T10:46:39.110Z,6.03
2019-02-20T10:48:43.481Z,6.50
2019-02-20T10:50:47.818Z,5.87
2019-02-20T10:52:52.224Z,9.93
2019-02-20T10:54:57.952Z,8.57
2019-02-20T10:57:01.040Z,12.87
2019-02-20T10:59:05.468Z,9.27
2019-02-20T11:01:09.875Z,10.77
2019-02-20T11:03:14.317Z,7.33
2019-02-20T11:05:18.726Z,6.70
2019-02-20T11:07:23.091Z,4.87
2019-02-20T11:09:27.467Z,6.43
2019-02-20T11:11:31.863Z,8.90
2019-02-20T11:13:36.253Z,6.27
2019-02-20T11:15:40.606Z,6.10
2019-02-20T11:17:45.017Z,6.87
2019-02-20T11:19:49.354Z,7.77
2019-02-20T11:21:53.697Z,5.13
2019-02-20T11:23:58.094Z,9.00
2019-02-20T11:26:02.661Z,7.37
2019-02-20T11:28:07.286Z,6.30
2019-02-20T11:30:14.530Z,5.50
2019-02-20T11:32:18.901Z,7.03
2019-02-20T11:34:23.370Z,7.57
2019-02-20T11:36:27.780Z,6.47
2019-02-20T11:38:32.130Z,5.47
2019-02-20T11:40:36.542Z,10.67
2019-02-20T11:42:40.934Z,7.87
2019-02-20T11:44:46.221Z,8.27
2019-02-20T11:46:50.614Z,7.47
2019-02-20T11:48:55.031Z,5.07
2019-02-20T11:50:59.453Z,6.07
2019-02-20T11:53:03.838Z,8.17
2019-02-20T11:55:08.347Z,9.80
2019-02-20T11:57:13.975Z,8.53
2019-02-20T11:59:17.182Z,5.83
2019-02-20T12:01:21.551Z,10.03
2019-02-20T12:03:26.066Z,7.27
2019-02-20T12:05:30.443Z,7.43
2019-02-20T12:07:34.839Z,7.80
2019-02-20T12:09:39.235Z,7.87
2019-02-20T12:11:43.687Z,6.97
2019-02-20T12:13:48.108Z,7.10
2019-02-20T12:15:52.499Z,10.43
2019-02-20T12:17:56.849Z,6.43
2019-02-20T12:20:01.291Z,4.10
2019-02-20T12:22:05.710Z,5.93
2019-02-20T12:24:11.830Z,5.83
2019-02-20T12:26:14.606Z,5.90
2019-02-20T12:28:18.993Z,7.47
2019-02-20T12:30:25.613Z,6.80
2019-02-20T12:32:30.969Z,6.53
2019-02-20T12:34:34.419Z,7.50
2019-02-20T12:36:38.871Z,7.30
2019-02-20T12:38:43.310Z,4.93
2019-02-20T12:40:50.931Z,7.87
2019-02-20T12:42:54.750Z,4.03
2019-02-20T12:44:59.166Z,7.50
2019-02-20T12:47:03.538Z,5.57
2019-02-20T12:49:08.036Z,7.47
2019-02-20T12:51:12.474Z,6.60
2019-02-20T12:53:17.754Z,7.23
2019-02-20T12:55:22.229Z,5.60
2019-02-20T12:57:26.701Z,5.80
2019-02-20T12:59:31.072Z,5.00
2019-02-20T13:01:35.528Z,6.23
2019-02-20T13:03:39.870Z,4.93
2019-02-20T13:05:44.271Z,4.73
2019-02-20T13:07:48.651Z,6.50
2019-02-20T13:09:53.739Z,5.07
2019-02-20T13:11:58.162Z,2.43
2019-02-20T13:14:02.538Z,7.23
2019-02-20T13:16:09.499Z,6.03
2019-02-20T13:18:11.533Z,5.23
2019-02-20T13:20:15.850Z,5.10
2019-02-20T13:22:20.241Z,7.50
2019-02-20T13:24:24.696Z,6.73
2019-02-20T13:26:29.073Z,6.43
2019-02-20T13:28:33.461Z,4.40
2019-02-20T13:30:37.873Z,6.00
2019-02-20T13:32:42.364Z,4.97
2019-02-20T13:34:46.783Z,1.53
2019-02-20T13:36:51.218Z,4.10
2019-02-20T13:38:55.595Z,3.27
2019-02-20T13:41:00.062Z,5.63
2019-02-20T13:43:04.484Z,4.40
2019-02-20T13:45:08.975Z,3.37
2019-02-20T13:47:13.392Z,5.83
2019-02-20T13:49:17.853Z,6.07
2019-02-20T13:51:22.262Z,5.57
2019-02-20T13:53:26.700Z,3.73
2019-02-20T13:55:34.398Z,5.77
2019-02-20T13:57:35.600Z,4.90
2019-02-20T13:59:40.061Z,6.13
2019-02-20T14:01:45.660Z,5.87
2019-02-20T14:03:48.892Z,5.97
2019-02-20T14:05:53.326Z,5.67
2019-02-20T14:07:58.423Z,6.10
2019-02-20T14:10:02.991Z,5.93
2019-02-20T14:12:07.481Z,6.80
2019-02-20T14:14:11.839Z,3.57
2019-02-20T14:16:16.266Z,5.23
2019-02-20T14:18:20.593Z,5.30
2019-02-20T14:20:25.082Z,6.30
2019-02-20T14:22:29.520Z,4.30
2019-02-20T14:24:33.914Z,2.77
2019-02-20T14:26:38.313Z,6.70
2019-02-20T14:28:42.823Z,4.57
2019-02-20T14:30:47.218Z,6.57
2019-02-20T14:32:51.581Z,7.17
2019-02-20T14:34:56.088Z,6.07
2019-02-20T14:37:00.502Z,6.50
2019-02-20T14:39:06.120Z,5.00
2019-02-20T14:41:10.592Z,4.37
2019-02-20T14:43:14.996Z,5.17
2019-02-20T14:45:19.456Z,3.73
2019-02-20T14:47:23.787Z,3.10
2019-02-20T14:49:28.188Z,3.30
2019-02-20T14:51:32.741Z,3.60
2019-02-20T14:53:37.099Z,3.77
2019-02-20T14:55:41.493Z,1.80
2019-02-20T14:57:46.003Z,3.07
2019-02-20T14:59:50.368Z,3.30
2019-02-20T15:01:54.825Z,2.33
2019-02-20T15:03:59.246Z,2.73
2019-02-20T15:06:03.675Z,3.23
2019-02-20T15:08:08.102Z,2.03
2019-02-20T15:10:12.461Z,1.90
2019-02-20T15:12:16.894Z,3.27
2019-02-20T15:14:21.395Z,2.77
2019-02-20T15:16:25.800Z,3.17
2019-02-20T15:18:30.167Z,6.53
2019-02-20T15:20:35.596Z,1.37
2019-02-20T15:22:38.971Z,0.70
2019-02-20T15:24:43.461Z,2.20
2019-02-20T15:26:47.918Z,2.50
2019-02-20T15:28:52.339Z,2.80
2019-02-20T15:30:57.616Z,1.73
2019-02-20T15:33:01.974Z,3.13
2019-02-20T15:35:06.724Z,2.30
2019-02-20T15:37:11.131Z,2.90
2019-02-20T15:39:15.621Z,2.30
2019-02-20T15:41:19.990Z,2.30
2019-02-20T15:43:24.402Z,2.70
2019-02-20T15:45:28.871Z,2.50
2019-02-20T15:47:33.260Z,2.33
2019-02-20T15:49:37.626Z,2.63
2019-02-20T15:51:42.093Z,2.30
2019-02-20T15:53:46.487Z,2.63
2019-02-20T15:55:50.833Z,2.70
2019-02-20T15:57:55.267Z,3.00
2019-02-20T15:59:59.695Z,2.70
2019-02-20T16:02:04.075Z,3.00
2019-02-20T16:04:08.530Z,2.83
2019-02-20T16:06:12.906Z,3.40
2019-02-20T16:08:17.323Z,3.40
2019-02-20T16:10:21.772Z,2.27
2019-02-20T16:12:26.130Z,3.30
2019-02-20T16:14:30.494Z,2.47
2019-02-20T16:16:35.192Z,3.23
2019-02-20T16:18:39.579Z,3.37
2019-02-20T16:20:43.974Z,2.03
2019-02-20T16:22:48.410Z,2.63
2019-02-20T16:24:53.585Z,3.53
2019-02-20T16:26:57.943Z,2.13
2019-02-20T16:29:02.433Z,3.50
2019-02-20T16:31:06.823Z,2.87
2019-02-20T16:33:11.290Z,2.63
2019-02-20T16:35:15.720Z,3.43
2019-02-20T16:37:21.671Z,3.00
2019-02-20T16:39:24.526Z,2.90
2019-02-20T16:41:28.943Z,3.70
2019-02-20T16:43:33.397Z,3.03
2019-02-20T16:45:37.877Z,3.07
2019-02-20T16:47:42.345Z,3.13
2019-02-20T16:49:46.836Z,3.43
2019-02-20T16:51:51.326Z,3.90
2019-02-20T16:53:55.753Z,3.67
2019-02-20T16:56:00.158Z,3.73
2019-02-20T16:58:04.664Z,2.50
2019-02-20T17:00:09.424Z,3.40
2019-02-20T17:02:13.982Z,3.70
2019-02-20T17:04:18.464Z,3.50
2019-02-20T17:06:22.999Z,3.57
2019-02-20T17:08:27.377Z,3.83
2019-02-20T17:10:31.763Z,3.63
2019-02-20T17:12:36.711Z,3.73
2019-02-20T17:14:41.317Z,4.50
2019-02-20T17:16:45.675Z,3.50
2019-02-20T17:18:50.205Z,3.20
2019-02-20T17:20:54.699Z,4.20
2019-02-20T17:22:59.083Z,3.43
2019-02-20T17:25:03.617Z,3.63
2019-02-20T17:27:08.002Z,4.10
2019-02-20T17:29:12.422Z,4.37
2019-02-20T17:31:16.886Z,4.33
2019-02-20T17:33:21.315Z,4.00
2019-02-20T17:35:25.770Z,3.70
2019-02-20T17:37:30.210Z,2.90
2019-02-20T17:39:34.606Z,3.60
2019-02-20T17:41:38.985Z,2.77
2019-02-20T17:43:43.397Z,3.77
2019-02-20T17:45:47.807Z,3.87
2019-02-20T17:47:52.244Z,3.63
2019-02-20T17:49:56.652Z,4.23
2019-02-20T17:52:01.298Z,4.07
2019-02-20T17:54:05.737Z,3.63
2019-02-20T17:56:10.151Z,3.03
2019-02-20T17:58:15.385Z,4.60
2019-02-20T18:00:21.073Z,4.50
2019-02-20T18:02:25.451Z,4.00
2019-02-20T18:04:29.795Z,3.77
2019-02-20T18:06:34.195Z,4.03
2019-02-20T18:08:38.542Z,3.97
2019-02-20T18:10:42.925Z,4.63
2019-02-20T18:12:47.311Z,3.67
2019-02-20T18:14:51.721Z,3.90
2019-02-20T18:16:56.134Z,3.90
2019-02-20T18:19:00.518Z,3.60
2019-02-20T18:21:04.901Z,4.03
2019-02-20T18:23:09.301Z,3.90
2019-02-20T18:25:13.825Z,4.87
2019-02-20T18:27:18.249Z,4.57
2019-02-20T18:29:22.641Z,4.77
2019-02-20T18:31:26.988Z,4.57
2019-02-20T18:33:31.298Z,3.90
2019-02-20T18:35:35.719Z,3.83
2019-02-20T18:37:40.104Z,4.60
2019-02-20T18:39:44.518Z,4.03
2019-02-20T18:41:48.974Z,4.23
2019-02-20T18:43:53.439Z,4.37
2019-02-20T18:45:57.795Z,4.47
2019-02-20T18:48:02.256Z,3.53
2019-02-20T18:50:07.860Z,4.60
2019-02-20T18:52:12.222Z,4.80
2019-02-20T18:54:16.602Z,4.00
2019-02-20T18:56:21.899Z,4.33
2019-02-20T18:58:33.784Z,4.77
2019-02-20T19:00:29.764Z,4.43
2019-02-20T19:02:34.101Z,5.10
2019-02-20T19:04:39.186Z,4.70
2019-02-20T19:06:43.578Z,5.40
2019-02-20T19:08:52.134Z,6.10
2019-02-20T19:11:00.322Z,4.87
2019-02-20T19:13:15.829Z,4.93
2019-02-20T19:15:35.682Z,5.93
2019-02-20T19:20:54.980Z,6.17
2019-02-20T19:23:27.160Z,5.43
2019-02-20T19:27:15.709Z,5.13
2019-02-20T19:29:38.868Z,5.70
2019-02-20T19:32:34.003Z,6.07
2019-02-20T19:34:55.177Z,5.50
2019-02-20T19:37:46.818Z,6.07
2019-02-20T19:40:00.047Z,6.60
2019-02-20T19:44:15.456Z,7.87
2019-02-20T19:49:06.111Z,7.30
2019-02-20T19:51:23.254Z,6.30
2019-02-20T19:53:37.411Z,6.73
2019-02-20T19:57:52.898Z,6.17
2019-02-20T20:01:07.861Z,7.07
2019-02-20T20:03:53.243Z,6.47
2019-02-20T20:06:22.837Z,6.77
2019-02-20T20:08:39.751Z,8.23
2019-02-20T20:11:25.181Z,8.40
2019-02-20T20:15:59.870Z,6.27
2019-02-20T20:20:20.563Z,6.50
2019-02-20T20:22:35.940Z,6.97
2019-02-20T20:24:54.501Z,6.20
2019-02-20T20:27:41.176Z,7.13
2019-02-20T20:30:04.451Z,6.47
2019-02-20T20:32:26.871Z,7.57
2019-02-20T20:36:54.896Z,7.43
2019-02-20T20:39:44.266Z,7.70
2019-02-20T20:42:15.454Z,7.67
2019-02-20T20:44:33.078Z,6.87
2019-02-20T20:46:59.331Z,7.60
2019-02-20T20:49:45.269Z,7.97
2019-02-20T20:52:18.636Z,7.40
2019-02-20T20:54:43.679Z,8.83
2019-02-20T20:57:31.577Z,8.87
2019-02-20T20:59:42.288Z,8.30
2019-02-20T21:02:09.763Z,8.40
2019-02-20T21:04:29.706Z,8.70
2019-02-20T21:06:46.899Z,7.77
2019-02-20T21:09:02.159Z,7.53
2019-02-20T21:11:19.111Z,7.70
2019-02-20T21:14:37.034Z,8.40
2019-02-20T21:17:57.269Z,8.23
2019-02-20T21:21:12.947Z,7.73
2019-02-20T21:24:36.688Z,8.37
2019-02-20T21:26:51.763Z,10.50
2019-02-20T21:29:04.602Z,10.03
2019-02-20T21:31:20.021Z,8.93
2019-02-20T21:35:42.212Z,8.30
2019-02-20T21:37:58.770Z,7.93
2019-02-20T21:40:19.137Z,8.17
2019-02-20T21:43:06.911Z,8.20
2019-02-20T21:45:18.219Z,8.30
2019-02-20T21:47:36.385Z,8.77
2019-02-20T21:49:56.771Z,8.70
2019-02-20T21:52:18.122Z,8.63
2019-02-20T21:54:37.932Z,7.93
2019-02-20T21:56:59.805Z,7.60
2019-02-20T21:59:11.439Z,8.43
2019-02-20T22:02:23.881Z,7.73
2019-02-20T22:04:39.168Z,8.07
2019-02-20T22:07:02.161Z,7.83
2019-02-20T22:09:19.791Z,7.80
2019-02-20T22:12:07.116Z,7.63
2019-02-20T22:14:24.486Z,7.73
2019-02-20T22:16:48.626Z,7.27
2019-02-20T22:20:10.526Z,7.30
2019-02-20T22:22:25.915Z,7.90
2019-02-20T22:24:47.506Z,7.40
2019-02-20T22:27:20.341Z,7.90
2019-02-20T22:31:39.167Z,8.73
2019-02-20T22:34:00.559Z,7.33
2019-02-20T22:36:16.897Z,7.00
2019-02-20T22:40:35.811Z,7.80
2019-02-20T22:43:04.879Z,7.67
2019-02-20T22:45:33.601Z,7.87
2019-02-20T22:49:50.374Z,7.70
2019-02-20T22:52:03.935Z,7.03
2019-02-20T22:54:23.062Z,12.33
2019-02-20T22:58:49.987Z,9.60
2019-02-20T23:02:01.827Z,9.03
2019-02-20T23:04:36.560Z,7.00
2019-02-20T23:08:58.443Z,7.37
2019-02-20T23:11:46.385Z,7.87
2019-02-20T23:14:06.134Z,6.80
2019-02-20T23:16:10.512Z,7.67
2019-02-20T23:18:14.850Z,8.57
2019-02-20T23:20:19.230Z,8.90
2019-02-20T23:22:23.708Z,7.73
2019-02-20T23:24:28.169Z,6.87
2019-02-20T23:26:32.544Z,7.60
2019-02-20T23:28:36.891Z,7.33
2019-02-20T23:30:41.270Z,7.30
2019-02-20T23:32:45.682Z,8.53
2019-02-20T23:34:50.057Z,7.77
2019-02-20T23:36:54.454Z,7.23
2019-02-20T23:38:58.814Z,8.03
2019-02-20T23:41:03.186Z,7.43
2019-02-20T23:43:07.637Z,7.97
2019-02-20T23:45:12.108Z,6.90
2019-02-20T23:47:17.133Z,8.30
2019-02-20T23:49:23.832Z,6.73
2019-02-20T23:51:28.255Z,7.53
2019-02-20T23:53:32.627Z,6.97
2019-02-20T23:57:05.122Z,7.20
2019-02-20T23:59:14.417Z,7.63
